Lions, Louisiana
Current Conditions -  °F | °C
As of 6:15 AM on Saturday 20 Dec 2014 (Local Time) from K1L0 Reporting Station
Overcast Overcast  
Wind Chill: 51°   Ceiling: 700
Heat Index: 51°   Visibility: 10mi
Dew Point: 48°   Wind: 9mph
Humidity: 89%   Direction: 30°NNE
Pressure: 30.11"   Gusts: NA
Location:  30.0699°N, 90.5574°W
Report Text: K1L0 201215Z AUTO 03008KT 10SM OVC007 11/09 A3011 RMK AO2 T01050088
Loading
Personal Weather Stations






























Interactive Weather Map New forecast layout! Learn more

10-Day Weather Forecast

Advertisements
Track Severe Weather on mobile